Time;durP1;ratioP1;P1;durP2;ratioP2;P2;SDS_P1;SDS_P2;PMS_P1;PMS_P2;Temp;Humidity;BMP_temperature;BMP_pressure;BME280_temperature;BME280_humidity;BME280_pressure;Samples;Min_cycle;Max_cycle;Signal;HPM_P1;HPM_P2
2021/07/11 00:02:05;;;;;;;;;;;11.00;99.90;;;;;;5071316;28;19920;-69
2021/07/11 00:04:31;;;;;;;;;;;11.00;99.90;;;;;;5072715;28;19916;-69
2021/07/11 00:06:58;;;;;;;;;;;11.00;99.90;;;;;;5072579;28;19917;-69
2021/07/11 00:09:25;;;;;;;;;;;11.00;99.90;;;;;;5072399;28;20137;-69
2021/07/11 00:11:51;;;;;;;;;;;11.10;99.90;;;;;;5072143;28;19909;-69
2021/07/11 00:14:18;;;;;;;;;;;11.10;99.90;;;;;;5072218;28;19948;-69
2021/07/11 00:16:45;;;;;;;;;;;11.10;99.90;;;;;;5072381;28;19909;-69
2021/07/11 00:19:11;;;;;;;;;;;11.20;99.90;;;;;;5072400;28;20121;-69
2021/07/11 00:21:38;;;;;;;;;;;11.30;99.90;;;;;;5071340;28;19908;-69
2021/07/11 00:24:05;;;;;;;;;;;11.30;99.90;;;;;;5072407;28;19915;-69
2021/07/11 00:26:31;;;;;;;;;;;11.40;99.90;;;;;;5072443;28;20279;-69
2021/07/11 00:28:58;;;;;;;;;;;11.60;99.90;;;;;;5071952;28;20504;-69
2021/07/11 00:31:25;;;;;;;;;;;11.60;99.90;;;;;;5073944;28;19909;-69
2021/07/11 00:33:51;;;;;;;;;;;11.70;99.90;;;;;;5071907;28;19908;-68
2021/07/11 00:36:18;;;;;;;;;;;11.90;99.90;;;;;;5072029;28;19924;-69
2021/07/11 00:38:44;;;;;;;;;;;12.00;99.90;;;;;;5072028;28;19915;-69
2021/07/11 00:41:11;;;;;;;;;;;12.10;99.90;;;;;;5072022;28;19908;-68
2021/07/11 00:43:38;;;;;;;;;;;12.20;99.90;;;;;;5071717;28;20437;-69
2021/07/11 00:46:05;;;;;;;;;;;12.30;99.90;;;;;;5071415;28;19916;-68
2021/07/11 00:48:31;;;;;;;;;;;12.30;99.90;;;;;;5071969;28;19966;-68
2021/07/11 00:50:58;;;;;;;;;;;12.30;99.90;;;;;;5071980;28;19958;-69
2021/07/11 00:53:24;;;;;;;;;;;12.20;99.90;;;;;;5071867;28;20347;-69
2021/07/11 00:55:51;;;;;;;;;;;12.20;99.90;;;;;;5071548;28;19944;-68
2021/07/11 00:58:18;;;;;;;;;;;12.20;99.90;;;;;;5071813;28;19916;-68
2021/07/11 01:00:49;;;;;;;;;;;12.10;99.90;;;;;;5071118;28;19951;-68
2021/07/11 01:03:26;;;;;;;;;;;12.10;99.90;;;;;;5071907;28;19909;-68
2021/07/11 01:05:53;;;;;;;;;;;12.10;99.90;;;;;;5071408;28;19999;-69
2021/07/11 01:08:38;;;;;;;;;;;12.10;99.90;;;;;;5071548;28;19919;-69
2021/07/11 01:11:06;;;;;;;;;;;12.20;99.90;;;;;;5071552;28;20264;-68
2021/07/11 01:13:33;;;;;;;;;;;12.20;99.90;;;;;;5071526;28;20351;-69
2021/07/11 01:16:03;;;;;;;;;;;12.40;99.90;;;;;;5071083;28;19951;-69
2021/07/11 01:18:30;;;;;;;;;;;12.50;99.90;;;;;;5071852;28;19909;-68
2021/07/11 01:21:02;;;;;;;;;;;12.70;99.90;;;;;;5071533;28;20004;-68
2021/07/11 01:23:47;;;;;;;;;;;12.90;99.90;;;;;;5071643;28;19915;-68
2021/07/11 01:26:14;;;;;;;;;;;13.00;99.90;;;;;;5071610;28;20325;-68
2021/07/11 01:28:41;;;;;;;;;;;13.10;99.90;;;;;;5071578;28;19909;-68
2021/07/11 01:31:09;;;;;;;;;;;13.10;99.90;;;;;;5071108;28;19920;-68
2021/07/11 01:33:36;;;;;;;;;;;13.10;99.90;;;;;;5073802;28;19962;-68
2021/07/11 01:36:04;;;;;;;;;;;13.10;99.90;;;;;;5075120;28;20319;-67
2021/07/11 01:38:32;;;;;;;;;;;13.20;99.90;;;;;;5075169;28;19916;-68
2021/07/11 01:40:59;;;;;;;;;;;13.20;99.90;;;;;;5075008;28;19908;-68
2021/07/11 01:43:26;;;;;;;;;;;13.20;99.90;;;;;;5074855;28;19960;-68
2021/07/11 01:45:54;;;;;;;;;;;13.30;99.90;;;;;;5074005;28;19913;-68
2021/07/11 01:48:20;;;;;;;;;;;13.30;99.90;;;;;;5074794;28;20385;-67
2021/07/11 01:50:50;;;;;;;;;;;13.50;99.90;;;;;;5075026;28;19916;-67
2021/07/11 01:53:18;;;;;;;;;;;13.60;99.90;;;;;;5074894;28;19908;-67
2021/07/11 01:55:44;;;;;;;;;;;13.60;99.90;;;;;;5074467;28;20385;-67
2021/07/11 01:58:11;;;;;;;;;;;13.60;99.90;;;;;;5074788;28;20275;-67
2021/07/11 02:00:38;;;;;;;;;;;13.70;99.90;;;;;;5073445;28;20003;-67
2021/07/11 02:03:14;;;;;;;;;;;13.70;99.90;;;;;;5074577;28;19962;-68
2021/07/11 02:05:41;;;;;;;;;;;13.70;99.90;;;;;;5074791;28;20256;-68
2021/07/11 02:08:07;;;;;;;;;;;13.70;99.90;;;;;;5074475;28;19974;-67
2021/07/11 02:10:34;;;;;;;;;;;13.80;99.90;;;;;;5074659;28;19908;-68
2021/07/11 02:13:11;;;;;;;;;;;13.70;99.90;;;;;;5074294;28;19956;-68
2021/07/11 02:15:38;;;;;;;;;;;13.90;99.90;;;;;;5073653;28;19951;-68
2021/07/11 02:18:05;;;;;;;;;;;14.10;99.90;;;;;;5074296;28;20370;-67
2021/07/11 02:20:32;;;;;;;;;;;14.10;99.90;;;;;;5074225;28;20007;-68
2021/07/11 02:23:00;;;;;;;;;;;14.30;99.90;;;;;;5072965;28;19953;-67
2021/07/11 02:25:27;;;;;;;;;;;14.50;99.90;;;;;;5074265;28;19908;-67
2021/07/11 02:27:54;;;;;;;;;;;14.30;99.90;;;;;;5074148;28;19920;-67
2021/07/11 02:30:27;;;;;;;;;;;14.00;99.90;;;;;;5073330;28;19959;-67
2021/07/11 02:32:54;;;;;;;;;;;13.80;99.90;;;;;;5074339;28;19908;-67
2021/07/11 02:35:30;;;;;;;;;;;13.60;99.90;;;;;;5073959;28;19908;-68
2021/07/11 02:38:00;;;;;;;;;;;13.60;99.90;;;;;;5074092;28;19916;-68
2021/07/11 02:40:26;;;;;;;;;;;13.50;99.90;;;;;;5074069;28;19908;-67
2021/07/11 02:42:57;;;;;;;;;;;13.50;99.90;;;;;;5073654;28;20011;-67
2021/07/11 02:45:25;;;;;;;;;;;13.50;99.90;;;;;;5071068;28;20286;-68
2021/07/11 02:47:51;;;;;;;;;;;13.50;99.90;;;;;;5073357;28;20003;-68
2021/07/11 02:50:19;;;;;;;;;;;13.40;99.90;;;;;;5073617;28;20397;-67
2021/07/11 02:52:45;;;;;;;;;;;13.40;99.90;;;;;;5073382;28;19935;-68
2021/07/11 02:55:15;;;;;;;;;;;13.40;99.90;;;;;;5073504;28;19908;-68
2021/07/11 02:57:42;;;;;;;;;;;13.50;99.90;;;;;;5073427;28;19908;-67
2021/07/11 03:00:10;;;;;;;;;;;13.60;99.90;;;;;;5072723;28;19915;-68
2021/07/11 03:02:38;;;;;;;;;;;13.60;99.90;;;;;;5073570;28;19915;-67
2021/07/11 03:05:06;;;;;;;;;;;13.60;99.90;;;;;;5073217;28;19919;-68
2021/07/11 03:07:33;;;;;;;;;;;13.60;99.90;;;;;;5073225;28;19999;-68
2021/07/11 03:10:00;;;;;;;;;;;13.60;99.90;;;;;;5073563;28;19909;-68
2021/07/11 03:12:27;;;;;;;;;;;13.60;99.90;;;;;;5073385;28;19909;-68
2021/07/11 03:14:54;;;;;;;;;;;13.60;99.90;;;;;;5073212;28;19908;-68
2021/07/11 03:17:22;;;;;;;;;;;13.60;99.90;;;;;;5073323;28;20355;-68
2021/07/11 03:19:53;;;;;;;;;;;13.50;99.90;;;;;;5072896;28;19944;-69
2021/07/11 03:22:28;;;;;;;;;;;13.50;99.90;;;;;;5073200;28;19908;-68
2021/07/11 03:24:59;;;;;;;;;;;13.60;99.90;;;;;;5073049;28;19916;-68
2021/07/11 03:27:29;;;;;;;;;;;13.80;99.90;;;;;;5072942;28;20272;-68
2021/07/11 03:30:10;;;;;;;;;;;13.90;99.90;;;;;;5072858;28;19943;-68
2021/07/11 03:32:57;;;;;;;;;;;13.80;99.90;;;;;;5072712;28;19923;-69
2021/07/11 03:35:42;;;;;;;;;;;14.00;99.90;;;;;;5072552;28;20429;-68
2021/07/11 03:38:10;;;;;;;;;;;14.10;99.90;;;;;;5072883;28;19999;-68
2021/07/11 03:40:41;;;;;;;;;;;14.30;99.90;;;;;;5072215;28;19931;-68
2021/07/11 03:43:09;;;;;;;;;;;14.40;99.90;;;;;;5070949;28;20314;-69
2021/07/11 03:45:38;;;;;;;;;;;14.60;99.90;;;;;;5070789;28;19947;-68
2021/07/11 03:48:11;;;;;;;;;;;14.70;99.90;;;;;;5070810;28;19962;-68
2021/07/11 03:50:38;;;;;;;;;;;14.80;99.90;;;;;;5071427;28;20397;-68
2021/07/11 03:53:06;;;;;;;;;;;14.90;99.90;;;;;;5070873;28;20455;-68
2021/07/11 03:55:34;;;;;;;;;;;14.90;99.90;;;;;;5069146;28;19916;-68
2021/07/11 03:58:01;;;;;;;;;;;15.00;99.90;;;;;;5070839;28;19908;-68
2021/07/11 04:00:29;;;;;;;;;;;15.10;99.90;;;;;;5072553;28;19973;-68
2021/07/11 04:02:56;;;;;;;;;;;15.10;99.90;;;;;;5072289;28;19959;-69
2021/07/11 04:05:25;;;;;;;;;;;15.20;99.90;;;;;;5072455;28;19943;-69
2021/07/11 04:07:53;;;;;;;;;;;15.20;99.90;;;;;;5072210;28;20411;-69
2021/07/11 04:10:24;;;;;;;;;;;15.30;99.90;;;;;;5072412;28;19995;-68
2021/07/11 04:12:51;;;;;;;;;;;15.30;99.90;;;;;;5072168;28;19909;-69
2021/07/11 04:15:18;;;;;;;;;;;15.20;99.90;;;;;;5072290;28;19915;-69
2021/07/11 04:17:52;;;;;;;;;;;15.20;99.90;;;;;;5072310;28;19962;-69
2021/07/11 04:20:22;;;;;;;;;;;15.10;99.90;;;;;;5072312;28;20274;-69
2021/07/11 04:22:50;;;;;;;;;;;15.10;99.90;;;;;;5072353;28;19915;-69
2021/07/11 04:25:17;;;;;;;;;;;15.10;99.90;;;;;;5072302;28;19916;-69
2021/07/11 04:27:44;;;;;;;;;;;15.10;99.90;;;;;;5054013;28;19920;-69
2021/07/11 04:30:11;;;;;;;;;;;15.10;99.90;;;;;;5072217;28;20398;-68
2021/07/11 04:32:38;;;;;;;;;;;15.10;99.90;;;;;;5072253;28;20416;-69
2021/07/11 04:35:05;;;;;;;;;;;15.10;99.90;;;;;;5072143;28;19908;-69
2021/07/11 04:37:32;;;;;;;;;;;14.90;99.90;;;;;;5072000;28;19970;-69
2021/07/11 04:39:58;;;;;;;;;;;14.70;99.90;;;;;;5072067;28;19909;-68
2021/07/11 04:42:25;;;;;;;;;;;14.60;99.90;;;;;;5071996;28;19920;-67
2021/07/11 04:44:52;;;;;;;;;;;14.40;99.90;;;;;;5072019;28;20347;-68
2021/07/11 04:47:19;;;;;;;;;;;14.30;99.90;;;;;;5072230;28;20278;-68
2021/07/11 04:49:45;;;;;;;;;;;14.30;99.90;;;;;;5071658;28;19912;-69
2021/07/11 04:52:12;;;;;;;;;;;14.20;99.90;;;;;;5071993;28;20413;-69
2021/07/11 04:54:39;;;;;;;;;;;14.10;99.90;;;;;;5071972;28;19916;-69
2021/07/11 04:57:05;;;;;;;;;;;14.20;99.90;;;;;;5072039;28;19956;-69
2021/07/11 04:59:32;;;;;;;;;;;14.20;99.90;;;;;;5071643;28;19998;-69
2021/07/11 05:01:59;;;;;;;;;;;14.10;99.90;;;;;;5071925;28;19908;-69
2021/07/11 05:04:25;;;;;;;;;;;13.90;99.90;;;;;;5071947;28;19951;-69
2021/07/11 05:06:52;;;;;;;;;;;13.90;99.90;;;;;;5072270;28;19916;-69
2021/07/11 05:09:18;;;;;;;;;;;13.80;99.90;;;;;;5075822;28;19913;-69
2021/07/11 05:11:45;;;;;;;;;;;13.70;99.90;;;;;;5075356;28;20324;-69
2021/07/11 05:14:12;;;;;;;;;;;13.70;99.90;;;;;;5075544;28;19923;-69
2021/07/11 05:16:38;;;;;;;;;;;13.70;99.90;;;;;;5075361;28;19921;-69
2021/07/11 05:19:05;;;;;;;;;;;13.70;99.90;;;;;;5075460;28;19965;-69
2021/07/11 05:21:32;;;;;;;;;;;13.70;99.90;;;;;;5075150;28;19909;-69
2021/07/11 05:23:59;;;;;;;;;;;13.70;99.90;;;;;;5075418;28;20350;-69
2021/07/11 05:26:26;;;;;;;;;;;13.80;99.90;;;;;;5075246;28;19977;-69
2021/07/11 05:28:52;;;;;;;;;;;13.90;99.90;;;;;;5075035;28;20436;-69
2021/07/11 05:31:19;;;;;;;;;;;13.90;99.90;;;;;;5075256;28;20310;-69
2021/07/11 05:33:46;;;;;;;;;;;14.00;99.90;;;;;;5075065;28;19909;-69
2021/07/11 05:36:13;;;;;;;;;;;14.00;99.90;;;;;;5075178;28;19984;-69
2021/07/11 05:38:40;;;;;;;;;;;14.10;99.90;;;;;;5074971;28;19912;-69
2021/07/11 05:41:07;;;;;;;;;;;14.10;99.90;;;;;;5075073;28;19908;-68
2021/07/11 05:43:33;;;;;;;;;;;14.20;99.90;;;;;;5074549;28;19943;-68
2021/07/11 05:46:00;;;;;;;;;;;14.20;99.90;;;;;;5075105;28;19913;-68
2021/07/11 05:48:27;;;;;;;;;;;14.20;99.90;;;;;;5074957;28;20286;-67
2021/07/11 05:50:54;;;;;;;;;;;14.20;99.90;;;;;;5074756;28;19979;-68
2021/07/11 05:53:21;;;;;;;;;;;14.20;99.90;;;;;;5075039;28;19915;-68
2021/07/11 05:55:48;;;;;;;;;;;14.30;99.90;;;;;;5074568;28;19913;-68
2021/07/11 05:58:15;;;;;;;;;;;14.30;99.90;;;;;;5074644;28;20522;-68
2021/07/11 06:00:42;;;;;;;;;;;14.30;99.90;;;;;;5074661;28;19980;-68
2021/07/11 06:03:10;;;;;;;;;;;14.30;99.90;;;;;;5074734;28;19908;-68
2021/07/11 06:05:42;;;;;;;;;;;14.30;99.90;;;;;;5074448;28;20366;-68
2021/07/11 06:08:09;;;;;;;;;;;14.30;99.90;;;;;;5074644;28;19923;-68
2021/07/11 06:10:36;;;;;;;;;;;14.30;99.90;;;;;;5074614;28;19974;-68
2021/07/11 06:13:03;;;;;;;;;;;14.30;99.90;;;;;;5074551;28;19961;-68
2021/07/11 06:15:29;;;;;;;;;;;14.20;99.90;;;;;;5074469;28;19915;-68
2021/07/11 06:17:56;;;;;;;;;;;14.30;99.90;;;;;;5074323;28;19909;-68
2021/07/11 06:20:23;;;;;;;;;;;14.20;99.90;;;;;;5073433;28;19916;-68
2021/07/11 06:22:50;;;;;;;;;;;14.20;99.90;;;;;;5074293;28;19915;-68
2021/07/11 06:25:17;;;;;;;;;;;14.10;99.90;;;;;;5074253;28;19931;-68
2021/07/11 06:27:44;;;;;;;;;;;14.10;99.90;;;;;;5073870;28;19916;-68
2021/07/11 06:30:13;;;;;;;;;;;14.10;99.90;;;;;;5074233;28;19909;-68
2021/07/11 06:32:40;;;;;;;;;;;14.00;99.90;;;;;;5074332;28;20363;-68
2021/07/11 06:35:08;;;;;;;;;;;14.00;99.90;;;;;;5074671;28;20461;-69
2021/07/11 06:37:35;;;;;;;;;;;13.90;99.90;;;;;;5073872;28;19959;-68
2021/07/11 06:40:01;;;;;;;;;;;13.90;99.90;;;;;;5074219;28;19912;-68
2021/07/11 06:42:28;;;;;;;;;;;13.90;99.90;;;;;;5073865;28;20038;-68
2021/07/11 06:44:55;;;;;;;;;;;13.80;99.90;;;;;;5073993;28;20364;-68
2021/07/11 06:47:21;;;;;;;;;;;13.80;99.90;;;;;;5073593;28;19964;-68
2021/07/11 06:49:48;;;;;;;;;;;13.80;99.90;;;;;;5073450;28;19909;-68
2021/07/11 06:52:15;;;;;;;;;;;13.70;99.90;;;;;;5073407;28;19909;-68
2021/07/11 06:54:41;;;;;;;;;;;13.70;99.90;;;;;;5073820;28;20269;-68
2021/07/11 06:57:08;;;;;;;;;;;13.70;99.90;;;;;;5073516;28;19966;-67
2021/07/11 06:59:35;;;;;;;;;;;13.60;99.90;;;;;;5073288;28;20015;-68
2021/07/11 07:02:02;;;;;;;;;;;13.60;99.90;;;;;;5073367;28;19908;-68
2021/07/11 07:04:29;;;;;;;;;;;13.60;99.90;;;;;;5073468;28;19999;-68
2021/07/11 07:06:55;;;;;;;;;;;13.50;99.90;;;;;;5073245;28;19921;-67
2021/07/11 07:09:22;;;;;;;;;;;13.50;99.90;;;;;;5073238;28;19931;-68
2021/07/11 07:11:48;;;;;;;;;;;13.50;99.90;;;;;;5073071;28;19909;-68
2021/07/11 07:14:15;;;;;;;;;;;13.40;99.90;;;;;;5073509;28;20339;-68
2021/07/11 07:16:42;;;;;;;;;;;13.40;99.90;;;;;;5073215;28;20312;-68
2021/07/11 07:19:08;;;;;;;;;;;13.40;99.90;;;;;;5073370;28;19919;-68
2021/07/11 07:21:35;;;;;;;;;;;13.40;99.90;;;;;;5072927;28;20334;-68
2021/07/11 07:24:02;;;;;;;;;;;13.30;99.90;;;;;;5073207;28;19908;-68
2021/07/11 07:26:28;;;;;;;;;;;13.30;99.90;;;;;;5074063;28;20335;-68
2021/07/11 07:28:55;;;;;;;;;;;13.30;99.90;;;;;;5073120;28;19935;-68
2021/07/11 07:31:22;;;;;;;;;;;13.30;99.90;;;;;;5072832;28;19944;-68
2021/07/11 07:33:48;;;;;;;;;;;13.30;99.90;;;;;;5072992;28;19939;-68
2021/07/11 07:36:15;;;;;;;;;;;13.30;99.90;;;;;;5072810;28;19908;-68
2021/07/11 07:38:42;;;;;;;;;;;13.20;99.90;;;;;;5073049;28;20969;-67
2021/07/11 07:41:08;;;;;;;;;;;13.30;99.90;;;;;;5072861;28;20295;-67
2021/07/11 07:43:35;;;;;;;;;;;13.20;99.90;;;;;;5072294;28;19956;-67
2021/07/11 07:46:02;;;;;;;;;;;13.20;99.90;;;;;;5072624;28;19908;-68
2021/07/11 07:48:28;;;;;;;;;;;13.30;99.90;;;;;;5072682;28;20374;-67
2021/07/11 07:50:57;;;;;;;;;;;13.30;99.90;;;;;;5072580;28;20396;-67
2021/07/11 07:53:24;;;;;;;;;;;13.20;99.90;;;;;;5072279;28;19915;-68
2021/07/11 07:55:51;;;;;;;;;;;13.20;99.90;;;;;;5072513;28;20411;-68
2021/07/11 07:58:18;;;;;;;;;;;13.20;99.90;;;;;;5072365;28;19948;-68
2021/07/11 08:00:44;;;;;;;;;;;13.10;99.90;;;;;;5072460;28;19977;-68
2021/07/11 08:03:11;;;;;;;;;;;13.10;99.90;;;;;;5072383;28;19913;-67
2021/07/11 08:05:37;;;;;;;;;;;13.10;99.90;;;;;;5072271;28;19908;-67
2021/07/11 08:08:05;;;;;;;;;;;13.00;99.90;;;;;;5071812;28;20015;-68
2021/07/11 08:10:32;;;;;;;;;;;13.00;99.90;;;;;;5072459;28;19909;-68
2021/07/11 08:12:59;;;;;;;;;;;13.00;99.90;;;;;;5072126;28;19954;-68
2021/07/11 08:15:25;;;;;;;;;;;13.00;99.90;;;;;;5072380;28;19958;-68
2021/07/11 08:17:52;;;;;;;;;;;13.10;99.90;;;;;;5072318;28;19908;-68
2021/07/11 08:20:20;;;;;;;;;;;13.10;99.90;;;;;;5072503;28;19916;-68
2021/07/11 08:22:47;;;;;;;;;;;13.00;99.90;;;;;;5071824;28;19912;-68
2021/07/11 08:25:14;;;;;;;;;;;13.00;99.90;;;;;;5072258;28;19909;-68
2021/07/11 08:27:41;;;;;;;;;;;13.00;99.90;;;;;;5071881;28;19954;-68
2021/07/11 08:30:09;;;;;;;;;;;13.00;99.90;;;;;;5072233;28;19912;-68
2021/07/11 08:32:36;;;;;;;;;;;13.00;99.90;;;;;;5072193;28;20368;-68
2021/07/11 08:35:02;;;;;;;;;;;12.90;99.90;;;;;;5072404;28;19908;-68
2021/07/11 08:37:29;;;;;;;;;;;12.90;99.90;;;;;;5071857;28;19915;-68
2021/07/11 08:39:56;;;;;;;;;;;12.90;99.90;;;;;;5072128;28;20359;-68
2021/07/11 08:42:25;;;;;;;;;;;12.80;99.90;;;;;;5072811;28;19913;-68
2021/07/11 08:44:52;;;;;;;;;;;12.80;99.90;;;;;;5076191;28;19919;-68
2021/07/11 08:47:20;;;;;;;;;;;12.80;99.90;;;;;;5076049;28;19917;-68
2021/07/11 08:49:47;;;;;;;;;;;12.80;99.90;;;;;;5075884;28;19955;-68
2021/07/11 08:52:14;;;;;;;;;;;12.80;99.90;;;;;;5075653;28;20397;-68
2021/07/11 08:54:41;;;;;;;;;;;12.80;99.90;;;;;;5076052;28;19909;-68
2021/07/11 08:57:11;;;;;;;;;;;12.80;99.90;;;;;;5075634;28;19918;-68
2021/07/11 08:59:39;;;;;;;;;;;12.70;99.90;;;;;;5075884;28;19939;-68
2021/07/11 09:02:06;;;;;;;;;;;12.70;99.90;;;;;;5075950;28;19999;-68
2021/07/11 09:04:42;;;;;;;;;;;12.70;99.90;;;;;;5076097;28;19909;-68
2021/07/11 09:07:22;;;;;;;;;;;12.70;99.90;;;;;;5074911;28;19964;-68
2021/07/11 09:09:56;;;;;;;;;;;12.60;99.90;;;;;;5075481;28;20389;-68
2021/07/11 09:12:23;;;;;;;;;;;12.60;99.90;;;;;;5075575;28;19962;-68
2021/07/11 09:14:51;;;;;;;;;;;12.60;99.90;;;;;;5075652;28;19908;-68
2021/07/11 09:17:18;;;;;;;;;;;12.60;99.90;;;;;;5075551;28;19908;-68
2021/07/11 09:19:48;;;;;;;;;;;12.60;99.90;;;;;;5075229;28;19913;-68
2021/07/11 09:22:16;;;;;;;;;;;12.60;99.90;;;;;;5074918;28;19952;-69
2021/07/11 09:24:48;;;;;;;;;;;12.50;99.90;;;;;;5074207;28;19909;-69
2021/07/11 09:27:16;;;;;;;;;;;12.50;99.90;;;;;;5075196;28;19923;-69
2021/07/11 09:29:43;;;;;;;;;;;12.60;99.90;;;;;;5075090;28;19962;-69
2021/07/11 09:32:21;;;;;;;;;;;12.50;99.90;;;;;;5075512;28;19944;-69
2021/07/11 09:34:48;;;;;;;;;;;12.50;99.90;;;;;;5075208;28;19909;-69
2021/07/11 09:37:16;;;;;;;;;;;12.50;99.90;;;;;;5074664;28;19909;-68
2021/07/11 09:39:56;;;;;;;;;;;12.40;99.90;;;;;;5075032;28;19963;-68
2021/07/11 09:42:27;;;;;;;;;;;12.40;99.90;;;;;;5074846;28;19938;-69
2021/07/11 09:44:54;;;;;;;;;;;12.50;99.90;;;;;;5075167;28;20252;-69
2021/07/11 09:47:22;;;;;;;;;;;12.40;99.90;;;;;;5074998;28;20348;-68
2021/07/11 09:50:06;;;;;;;;;;;12.40;99.90;;;;;;5075017;28;19909;-68
2021/07/11 09:52:33;;;;;;;;;;;12.40;99.90;;;;;;5075088;28;19909;-68
2021/07/11 09:55:03;;;;;;;;;;;12.50;99.90;;;;;;5073762;28;19908;-69
2021/07/11 09:57:36;;;;;;;;;;;12.40;99.90;;;;;;5081997;28;19940;-70
2021/07/11 10:00:05;;;;;;;;;;;12.40;99.90;;;;;;5088425;28;20010;-67
2021/07/11 10:02:32;;;;;;;;;;;12.40;99.90;;;;;;5075002;28;20004;-68
2021/07/11 10:04:58;;;;;;;;;;;12.30;99.90;;;;;;5074674;28;19983;-68
2021/07/11 10:07:25;;;;;;;;;;;12.30;99.90;;;;;;5074626;28;19981;-68
2021/07/11 10:09:52;;;;;;;;;;;12.20;99.90;;;;;;5074409;28;19951;-68
2021/07/11 10:12:19;;;;;;;;;;;12.20;99.90;;;;;;5073751;28;19916;-67
2021/07/11 10:14:45;;;;;;;;;;;12.20;99.90;;;;;;5074474;28;19952;-68
2021/07/11 10:17:15;;;;;;;;;;;12.10;99.90;;;;;;5074628;28;19920;-68
2021/07/11 10:19:45;;;;;;;;;;;12.10;99.90;;;;;;5074363;28;20367;-68
2021/07/11 10:22:12;;;;;;;;;;;12.10;99.90;;;;;;5074465;28;19908;-68
2021/07/11 10:24:45;;;;;;;;;;;12.10;99.90;;;;;;5074296;28;19993;-68
2021/07/11 10:27:18;;;;;;;;;;;12.00;99.90;;;;;;5073613;28;20039;-68
2021/07/11 10:29:45;;;;;;;;;;;12.10;99.90;;;;;;5073934;28;20370;-68
2021/07/11 10:32:23;;;;;;;;;;;12.00;99.90;;;;;;5073787;28;20279;-68
2021/07/11 10:34:50;;;;;;;;;;;12.00;99.90;;;;;;5074341;28;19951;-68
2021/07/11 10:37:22;;;;;;;;;;;12.00;99.90;;;;;;5074073;28;19912;-68
2021/07/11 10:40:06;;;;;;;;;;;11.90;99.90;;;;;;5073921;28;19908;-68
2021/07/11 10:42:33;;;;;;;;;;;12.00;99.90;;;;;;5073692;28;20060;-68
2021/07/11 10:45:06;;;;;;;;;;;11.90;99.90;;;;;;5073967;28;19912;-67
2021/07/11 10:47:33;;;;;;;;;;;11.90;99.90;;;;;;5092939;28;19962;-68
2021/07/11 10:50:00;;;;;;;;;;;11.90;99.90;;;;;;5094069;28;20002;-68
2021/07/11 10:52:27;;;;;;;;;;;11.90;99.90;;;;;;5094002;28;19908;-68
2021/07/11 10:54:56;;;;;;;;;;;11.80;99.90;;;;;;5094040;28;19915;-68
2021/07/11 10:57:27;;;;;;;;;;;11.80;99.90;;;;;;5093940;28;19939;-68
2021/07/11 10:59:55;;;;;;;;;;;11.80;99.90;;;;;;5092485;28;19908;-68
2021/07/11 11:02:23;;;;;;;;;;;11.80;99.90;;;;;;5093710;28;20376;-68
2021/07/11 11:05:02;;;;;;;;;;;11.80;99.90;;;;;;5093153;28;19909;-68
2021/07/11 11:07:39;;;;;;;;;;;11.80;99.90;;;;;;5093708;28;19921;-68
2021/07/11 11:10:17;;;;;;;;;;;11.80;99.90;;;;;;5093494;28;19912;-67
2021/07/11 11:12:44;;;;;;;;;;;11.80;99.90;;;;;;5093594;28;19990;-68
2021/07/11 11:15:15;;;;;;;;;;;11.80;99.90;;;;;;5093648;28;19908;-67
2021/07/11 11:17:42;;;;;;;;;;;11.80;99.90;;;;;;5093327;28;19931;-68
2021/07/11 11:20:09;;;;;;;;;;;11.80;99.90;;;;;;5093494;28;19911;-67
2021/07/11 11:22:35;;;;;;;;;;;11.80;99.90;;;;;;5093685;28;20289;-67
2021/07/11 11:25:03;;;;;;;;;;;11.80;99.90;;;;;;5092196;28;19908;-68
2021/07/11 11:27:34;;;;;;;;;;;11.70;99.90;;;;;;5093074;28;20242;-67
2021/07/11 11:30:10;;;;;;;;;;;11.70;99.90;;;;;;5093517;28;19909;-67
2021/07/11 11:32:36;;;;;;;;;;;11.70;99.90;;;;;;5093341;28;19955;-67
2021/07/11 11:35:04;;;;;;;;;;;11.70;99.90;;;;;;5093345;28;19915;-67
2021/07/11 11:37:32;;;;;;;;;;;11.60;99.90;;;;;;5093134;28;19908;-68
2021/07/11 11:40:11;;;;;;;;;;;11.60;99.90;;;;;;5093299;28;19908;-67
2021/07/11 11:42:51;;;;;;;;;;;11.70;99.90;;;;;;5092868;28;19916;-67
2021/07/11 11:45:19;;;;;;;;;;;11.60;99.90;;;;;;5093145;28;19912;-67
2021/07/11 11:47:57;;;;;;;;;;;11.60;99.90;;;;;;5092878;28;19927;-67
2021/07/11 11:50:24;;;;;;;;;;;11.60;99.90;;;;;;5093036;28;19919;-67
2021/07/11 11:52:50;;;;;;;;;;;11.60;99.90;;;;;;5078560;28;19931;-67
2021/07/11 11:55:17;;;;;;;;;;;11.60;99.90;;;;;;5072460;28;20318;-67
2021/07/11 11:57:44;;;;;;;;;;;11.50;99.90;;;;;;5072347;28;19915;-67
2021/07/11 12:00:14;;;;;;;;;;;11.50;99.90;;;;;;5072429;28;20009;-68
2021/07/11 12:02:41;;;;;;;;;;;11.50;99.90;;;;;;5071878;28;20374;-67
2021/07/11 12:05:09;;;;;;;;;;;11.60;99.90;;;;;;5072472;28;19908;-67
2021/07/11 12:07:36;;;;;;;;;;;11.50;99.90;;;;;;5072391;28;19921;-67
2021/07/11 12:10:03;;;;;;;;;;;11.50;99.90;;;;;;5072515;28;20398;-67
2021/07/11 12:12:30;;;;;;;;;;;11.50;99.90;;;;;;5072509;28;20240;-68
2021/07/11 12:14:57;;;;;;;;;;;11.50;99.90;;;;;;5072296;28;19913;-67
2021/07/11 12:17:23;;;;;;;;;;;11.50;99.90;;;;;;5070798;28;19909;-67
2021/07/11 12:19:52;;;;;;;;;;;11.40;99.90;;;;;;5072024;28;19998;-67
2021/07/11 12:22:19;;;;;;;;;;;11.30;99.90;;;;;;5072213;28;19908;-67
2021/07/11 12:24:48;;;;;;;;;;;11.30;99.90;;;;;;5072236;28;19913;-67
2021/07/11 12:27:19;;;;;;;;;;;11.30;99.90;;;;;;5072087;28;19924;-67
2021/07/11 12:29:45;;;;;;;;;;;11.30;99.90;;;;;;5072040;28;19912;-67
2021/07/11 12:32:12;;;;;;;;;;;11.30;99.90;;;;;;5072425;28;19954;-68
2021/07/11 12:34:39;;;;;;;;;;;11.30;99.90;;;;;;5072428;28;19936;-67
2021/07/11 12:37:07;;;;;;;;;;;11.30;99.90;;;;;;5072125;28;19919;-67
2021/07/11 12:39:37;;;;;;;;;;;11.30;99.90;;;;;;5071943;28;19912;-67
2021/07/11 12:42:14;;;;;;;;;;;11.20;99.90;;;;;;5071891;28;19909;-67
2021/07/11 12:44:41;;;;;;;;;;;11.20;99.90;;;;;;5072387;28;19916;-67
2021/07/11 12:47:14;;;;;;;;;;;11.20;99.90;;;;;;5072179;28;20446;-67
2021/07/11 12:49:54;;;;;;;;;;;11.20;99.90;;;;;;5072083;28;19940;-67
2021/07/11 12:52:21;;;;;;;;;;;11.10;99.90;;;;;;5072113;28;19908;-67
2021/07/11 12:54:48;;;;;;;;;;;11.10;99.90;;;;;;5071882;28;19909;-67
2021/07/11 12:57:15;;;;;;;;;;;11.10;99.90;;;;;;5072023;28;19909;-67
2021/07/11 12:59:45;;;;;;;;;;;11.00;99.90;;;;;;5071839;28;19916;-67
2021/07/11 13:02:17;;;;;;;;;;;11.00;99.90;;;;;;5072127;28;19908;-67
2021/07/11 13:04:44;;;;;;;;;;;11.00;99.90;;;;;;5072218;28;19915;-67
2021/07/11 13:07:12;;;;;;;;;;;10.90;99.90;;;;;;5071831;28;19929;-67
2021/07/11 13:09:43;;;;;;;;;;;11.00;99.90;;;;;;5071473;28;19909;-67
2021/07/11 13:12:12;;;;;;;;;;;10.90;99.90;;;;;;5071947;28;19909;-67
2021/07/11 13:14:39;;;;;;;;;;;10.90;99.90;;;;;;5071862;28;20417;-67
2021/07/11 13:17:06;;;;;;;;;;;11.00;99.90;;;;;;5071731;28;19919;-67
2021/07/11 13:19:32;;;;;;;;;;;11.00;99.90;;;;;;5071756;28;19916;-68
2021/07/11 13:21:59;;;;;;;;;;;11.10;99.90;;;;;;5071792;28;19915;-67
2021/07/11 13:24:26;;;;;;;;;;;11.10;99.90;;;;;;5072001;28;20007;-67
2021/07/11 13:26:52;;;;;;;;;;;11.00;99.90;;;;;;5071674;28;19912;-68
2021/07/11 13:29:19;;;;;;;;;;;10.90;99.90;;;;;;5074311;28;19955;-68
2021/07/11 13:31:45;;;;;;;;;;;10.90;99.90;;;;;;5075304;28;20337;-68
2021/07/11 13:34:12;;;;;;;;;;;10.90;99.90;;;;;;5075328;28;19909;-68
2021/07/11 13:36:39;;;;;;;;;;;10.90;99.90;;;;;;5075340;28;19968;-68
2021/07/11 13:39:06;;;;;;;;;;;10.90;99.90;;;;;;5075143;28;20367;-68
2021/07/11 13:41:33;;;;;;;;;;;10.90;99.90;;;;;;5075049;28;19909;-68
2021/07/11 13:43:59;;;;;;;;;;;10.90;99.90;;;;;;5074906;28;19920;-68
2021/07/11 13:46:26;;;;;;;;;;;10.80;99.90;;;;;;5075300;28;19912;-68
2021/07/11 13:48:53;;;;;;;;;;;10.80;99.90;;;;;;5075193;28;19936;-68
2021/07/11 13:51:20;;;;;;;;;;;10.80;99.90;;;;;;5107516;28;19912;-68
2021/07/11 13:53:46;;;;;;;;;;;10.80;99.90;;;;;;5074917;28;19908;-68
2021/07/11 13:56:13;;;;;;;;;;;10.80;99.90;;;;;;5074908;28;19908;-68
2021/07/11 13:58:40;;;;;;;;;;;10.90;99.90;;;;;;5074865;28;19916;-68
2021/07/11 14:01:09;;;;;;;;;;;11.00;99.90;;;;;;5074944;28;20256;-68
2021/07/11 14:03:36;;;;;;;;;;;11.00;99.90;;;;;;5074555;28;19920;-68
2021/07/11 14:06:03;;;;;;;;;;;11.10;99.90;;;;;;5074866;28;19932;-68
2021/07/11 14:08:32;;;;;;;;;;;10.90;99.90;;;;;;5074878;28;19916;-68
2021/07/11 14:10:59;;;;;;;;;;;11.00;99.90;;;;;;5074797;28;20355;-68
2021/07/11 14:13:26;;;;;;;;;;;11.00;99.90;;;;;;5074627;28;19912;-68
2021/07/11 14:15:53;;;;;;;;;;;11.00;99.90;;;;;;5074336;28;19948;-68
2021/07/11 14:18:20;;;;;;;;;;;11.00;99.90;;;;;;5074619;28;19912;-68
2021/07/11 14:20:47;;;;;;;;;;;11.10;99.90;;;;;;5074529;28;19959;-68
2021/07/11 14:23:13;;;;;;;;;;;11.00;99.90;;;;;;5074604;28;19915;-68